createdAt,value
2022-12-13T00:01:34.702Z,19.63
2022-12-13T00:04:05.573Z,19.42
2022-12-13T00:06:34.521Z,19.64
2022-12-13T00:09:05.616Z,19.64
2022-12-13T00:11:34.091Z,19.57
2022-12-13T00:14:02.170Z,19.64
2022-12-13T00:16:30.162Z,19.65
2022-12-13T00:18:59.969Z,19.66
2022-12-13T00:21:31.007Z,19.67
2022-12-13T00:24:00.627Z,19.66
2022-12-13T00:26:31.471Z,19.65
2022-12-13T00:29:00.717Z,19.59
2022-12-13T00:34:20.037Z,19.63
2022-12-13T00:36:48.382Z,19.63
2022-12-13T00:39:16.851Z,19.64
2022-12-13T00:41:46.397Z,19.64
2022-12-13T00:44:15.558Z,19.63
2022-12-13T00:46:43.960Z,19.63
2022-12-13T00:49:13.148Z,19.64
2022-12-13T00:51:41.329Z,19.64
2022-12-13T00:54:09.292Z,19.64
2022-12-13T00:56:38.957Z,19.66
2022-12-13T00:59:08.609Z,19.64
2022-12-13T01:01:37.983Z,19.41
2022-12-13T01:04:08.103Z,19.64
2022-12-13T01:06:39.393Z,19.64
2022-12-13T01:09:10.138Z,19.64
2022-12-13T01:11:38.178Z,19.63
2022-12-13T01:14:06.122Z,19.64
2022-12-13T01:16:35.621Z,19.63
2022-12-13T01:19:03.610Z,19.64
2022-12-13T01:21:31.707Z,19.64
2022-12-13T01:24:03.449Z,19.65
2022-12-13T01:26:32.236Z,19.65
2022-12-13T01:29:00.376Z,19.65
2022-12-13T01:31:28.507Z,19.65
2022-12-13T01:33:58.426Z,19.65
2022-12-13T01:36:27.283Z,19.64
2022-12-13T01:38:58.657Z,19.65
2022-12-13T01:41:28.547Z,19.64
2022-12-13T01:44:01.317Z,19.64
2022-12-13T01:46:30.295Z,19.63
2022-12-13T01:49:05.585Z,19.63
2022-12-13T01:51:54.298Z,19.63
2022-12-13T01:54:33.971Z,19.62
2022-12-13T01:57:05.903Z,19.63
2022-12-13T01:59:35.618Z,19.63
2022-12-13T02:02:04.144Z,19.65
2022-12-13T02:04:44.348Z,19.64
2022-12-13T02:07:23.367Z,19.64
2022-12-13T02:09:56.831Z,19.64
2022-12-13T02:12:29.590Z,19.64
2022-12-13T02:15:00.916Z,19.63
2022-12-13T02:17:45.461Z,19.64
2022-12-13T02:21:04.356Z,19.63
2022-12-13T02:24:26.072Z,19.59
2022-12-13T02:27:00.643Z,19.59
2022-12-13T02:29:57.278Z,19.59
2022-12-13T02:32:32.186Z,19.58
2022-12-13T02:35:06.621Z,19.59
2022-12-13T02:37:45.195Z,19.56
2022-12-13T02:40:21.844Z,19.59
2022-12-13T02:42:57.498Z,19.60
2022-12-13T02:45:31.164Z,19.58
2022-12-13T02:48:03.453Z,19.57
2022-12-13T02:50:33.200Z,19.59
2022-12-13T02:53:02.266Z,19.60
2022-12-13T02:55:32.500Z,19.59
2022-12-13T02:58:00.455Z,19.60
2022-12-13T03:00:37.862Z,19.60
2022-12-13T03:03:18.846Z,19.60
2022-12-13T03:06:10.225Z,19.61
2022-12-13T03:08:52.603Z,19.62
2022-12-13T03:11:22.868Z,19.60
2022-12-13T03:13:53.514Z,19.65
2022-12-13T03:16:31.101Z,19.63
2022-12-13T03:19:02.692Z,19.64
2022-12-13T03:21:31.180Z,19.65
2022-12-13T03:23:59.138Z,19.64
2022-12-13T03:26:28.492Z,19.64
2022-12-13T03:28:56.479Z,19.64
2022-12-13T03:31:24.531Z,19.64
2022-12-13T03:33:52.553Z,19.62
2022-12-13T03:36:22.458Z,19.63
2022-12-13T03:38:52.584Z,19.63
2022-12-13T03:41:23.946Z,19.58
2022-12-13T03:43:52.175Z,19.60
2022-12-13T03:46:20.170Z,19.64
2022-12-13T03:48:48.158Z,19.64
2022-12-13T03:51:16.155Z,19.64
2022-12-13T03:53:45.670Z,19.64
2022-12-13T03:56:13.623Z,19.65
2022-12-13T03:58:42.333Z,19.64
2022-12-13T04:01:13.467Z,19.65
2022-12-13T04:03:44.965Z,19.63
2022-12-13T04:06:22.199Z,19.65
2022-12-13T04:08:53.994Z,19.63
2022-12-13T04:11:42.914Z,19.44
2022-12-13T04:14:11.823Z,19.41
2022-12-13T04:16:40.595Z,19.62
2022-12-13T04:19:08.922Z,19.63
2022-12-13T04:21:36.893Z,19.63
2022-12-13T04:24:06.796Z,19.64
2022-12-13T04:26:34.752Z,19.64
2022-12-13T04:29:02.740Z,19.63
2022-12-13T04:31:30.791Z,19.64
2022-12-13T04:33:58.761Z,19.64
2022-12-13T04:36:30.949Z,19.61
2022-12-13T04:39:00.845Z,19.62
2022-12-13T04:41:34.396Z,19.62
2022-12-13T04:44:03.122Z,19.63
2022-12-13T04:46:31.354Z,19.55
2022-12-13T04:48:59.294Z,19.61
2022-12-13T04:51:27.359Z,19.62
2022-12-13T04:53:55.334Z,19.63
2022-12-13T04:56:23.382Z,19.63
2022-12-13T04:58:52.696Z,19.63
2022-12-13T05:01:20.869Z,19.64
2022-12-13T05:03:48.865Z,19.64
2022-12-13T05:06:26.808Z,19.64
2022-12-13T05:09:00.840Z,19.64
2022-12-13T05:11:35.489Z,19.62
2022-12-13T05:14:05.498Z,19.61
2022-12-13T05:16:33.509Z,19.61
2022-12-13T05:19:01.505Z,19.62
2022-12-13T05:21:29.447Z,19.63
2022-12-13T05:23:57.445Z,19.60
2022-12-13T05:26:25.391Z,19.63
2022-12-13T05:28:53.323Z,19.63
2022-12-13T05:31:24.051Z,19.63
2022-12-13T05:33:52.553Z,19.65
2022-12-13T05:36:22.608Z,19.65
2022-12-13T05:38:50.549Z,19.64
2022-12-13T05:41:21.900Z,19.65
2022-12-13T05:43:49.929Z,19.65
2022-12-13T05:46:18.399Z,19.67
2022-12-13T05:48:47.881Z,19.65
2022-12-13T05:51:15.840Z,19.65
2022-12-13T05:53:45.260Z,19.63
2022-12-13T05:56:22.387Z,19.62
2022-12-13T05:58:53.536Z,19.61
2022-12-13T06:01:21.836Z,19.61
2022-12-13T06:03:51.215Z,19.63
2022-12-13T06:06:19.280Z,19.64
2022-12-13T06:08:47.303Z,19.64
2022-12-13T06:11:31.052Z,19.65
2022-12-13T06:14:00.889Z,19.61
2022-12-13T06:16:29.369Z,19.64
2022-12-13T06:19:04.277Z,19.62
2022-12-13T06:21:41.164Z,19.64
2022-12-13T06:24:15.356Z,19.62
2022-12-13T06:26:45.466Z,19.63
2022-12-13T06:29:23.167Z,19.61
2022-12-13T06:32:02.162Z,19.61
2022-12-13T06:34:34.508Z,19.63
2022-12-13T06:37:05.429Z,19.61
2022-12-13T06:39:33.957Z,19.62
2022-12-13T06:42:03.364Z,19.63
2022-12-13T06:44:31.381Z,19.63
2022-12-13T06:47:10.527Z,19.61
2022-12-13T06:49:43.949Z,19.63
2022-12-13T06:52:13.997Z,19.62
2022-12-13T06:54:43.026Z,19.61
2022-12-13T06:57:11.690Z,19.63
2022-12-13T06:59:40.213Z,19.59
2022-12-13T07:02:24.398Z,19.62
2022-12-13T07:04:56.503Z,19.60
2022-12-13T07:07:25.853Z,19.61
2022-12-13T07:09:54.472Z,19.60
2022-12-13T07:12:22.527Z,19.60
2022-12-13T07:14:50.581Z,19.61
2022-12-13T07:17:32.816Z,19.63
2022-12-13T07:20:08.157Z,19.62
2022-12-13T07:22:42.976Z,19.63
2022-12-13T07:25:28.463Z,19.62
2022-12-13T07:28:02.646Z,19.61
2022-12-13T07:30:32.377Z,19.61
2022-12-13T07:33:00.421Z,19.61
2022-12-13T07:35:30.282Z,19.55
2022-12-13T07:37:58.305Z,19.60
2022-12-13T07:40:26.809Z,19.52
2022-12-13T07:42:56.184Z,19.57
2022-12-13T07:45:25.081Z,19.54
2022-12-13T07:47:53.342Z,19.54
2022-12-13T07:50:24.776Z,19.56
2022-12-13T07:52:55.102Z,19.57
2022-12-13T07:55:33.685Z,19.57
2022-12-13T07:58:10.245Z,19.56
2022-12-13T08:00:38.699Z,19.58
2022-12-13T08:03:07.545Z,19.50
2022-12-13T08:05:38.996Z,19.58
2022-12-13T08:08:11.820Z,19.58
2022-12-13T08:10:40.395Z,19.57
2022-12-13T08:13:08.496Z,19.58
2022-12-13T08:15:36.440Z,19.58
2022-12-13T08:18:05.205Z,19.57
2022-12-13T08:20:33.265Z,19.58
2022-12-13T08:23:02.104Z,19.57
2022-12-13T08:25:32.129Z,19.59
2022-12-13T08:28:01.939Z,19.59
2022-12-13T08:30:31.869Z,19.59
2022-12-13T08:33:05.118Z,19.60
2022-12-13T08:35:34.859Z,19.60
2022-12-13T08:38:03.258Z,19.60
2022-12-13T08:40:32.670Z,19.60
2022-12-13T08:43:00.649Z,19.60
2022-12-13T08:45:29.158Z,19.61
2022-12-13T08:47:59.757Z,19.52
2022-12-13T08:50:27.985Z,19.60
2022-12-13T08:52:55.988Z,19.60
2022-12-13T08:55:31.856Z,19.58
2022-12-13T08:58:08.521Z,19.57
2022-12-13T09:00:37.635Z,19.58
2022-12-13T09:03:06.118Z,19.58
2022-12-13T09:05:38.349Z,19.59
2022-12-13T09:08:24.867Z,19.59
2022-12-13T09:11:01.274Z,19.59
2022-12-13T09:13:43.738Z,19.58
2022-12-13T09:16:23.071Z,19.59
2022-12-13T09:18:54.757Z,19.58
2022-12-13T09:21:31.565Z,19.59
2022-12-13T09:24:01.376Z,19.58
2022-12-13T09:26:38.152Z,19.58
2022-12-13T09:29:10.334Z,19.57
2022-12-13T09:31:41.117Z,19.58
2022-12-13T09:34:09.652Z,19.57
2022-12-13T09:36:37.628Z,19.59
2022-12-13T09:39:06.831Z,19.59
2022-12-13T09:41:40.995Z,19.58
2022-12-13T09:44:32.858Z,19.59
2022-12-13T09:47:13.082Z,19.59
2022-12-13T09:49:52.100Z,19.52
2022-12-13T09:52:22.667Z,19.38
2022-12-13T09:54:53.102Z,19.58
2022-12-13T09:57:30.587Z,19.58
2022-12-13T10:00:02.782Z,19.56
2022-12-13T10:02:33.601Z,19.50
2022-12-13T10:05:22.309Z,19.58
2022-12-13T10:07:54.120Z,19.54
2022-12-13T10:10:22.476Z,19.56
2022-12-13T10:12:56.350Z,19.57
2022-12-13T10:15:26.740Z,19.57
2022-12-13T10:17:55.998Z,19.57
2022-12-13T10:20:29.044Z,19.57
2022-12-13T10:23:52.611Z,19.58
2022-12-13T10:25:51.700Z,19.57
2022-12-13T10:28:27.564Z,19.58
2022-12-13T10:30:58.314Z,19.58
2022-12-13T10:33:30.630Z,19.57
2022-12-13T10:36:20.010Z,19.58
2022-12-13T10:38:51.441Z,19.58
2022-12-13T10:41:31.719Z,19.57
2022-12-13T10:44:11.259Z,19.57
2022-12-13T10:46:41.995Z,19.56
2022-12-13T10:49:18.598Z,19.59
2022-12-13T10:51:47.473Z,19.59
2022-12-13T10:54:20.212Z,19.60
2022-12-13T10:56:50.926Z,19.57
2022-12-13T10:59:27.917Z,19.60
2022-12-13T11:01:57.289Z,19.60
2022-12-13T11:04:29.762Z,19.60
2022-12-13T11:06:59.820Z,19.60
2022-12-13T11:09:38.784Z,19.59
2022-12-13T11:12:15.405Z,19.58
2022-12-13T11:14:51.062Z,19.58
2022-12-13T11:17:24.423Z,19.58
2022-12-13T11:19:55.066Z,19.51
2022-12-13T11:22:27.033Z,19.59
2022-12-13T11:25:01.364Z,19.57
2022-12-13T11:27:44.305Z,19.58
2022-12-13T11:30:18.170Z,19.58
2022-12-13T11:33:05.061Z,19.59
2022-12-13T11:35:43.878Z,19.58
2022-12-13T11:38:24.238Z,19.57
2022-12-13T11:40:56.849Z,19.58
2022-12-13T11:43:32.311Z,19.57
2022-12-13T11:46:06.129Z,19.57
2022-12-13T11:48:42.494Z,19.57
2022-12-13T11:51:14.152Z,19.58
2022-12-13T11:53:51.001Z,19.57
2022-12-13T11:56:26.198Z,19.29
2022-12-13T11:59:05.869Z,19.57
2022-12-13T12:01:42.646Z,19.57
2022-12-13T12:04:22.601Z,19.58
2022-12-13T12:06:55.568Z,19.58
2022-12-13T12:09:29.157Z,19.56
2022-12-13T12:12:03.743Z,19.58
2022-12-13T12:14:41.247Z,19.58
2022-12-13T12:17:14.435Z,19.58
2022-12-13T12:19:47.297Z,19.58
2022-12-13T12:22:29.640Z,19.58
2022-12-13T12:25:21.429Z,19.57
2022-12-13T12:27:56.910Z,19.49
2022-12-13T12:30:27.988Z,19.57
2022-12-13T12:33:03.486Z,19.58
2022-12-13T12:36:04.567Z,19.59
2022-12-13T12:38:52.948Z,19.56
2022-12-13T12:41:41.971Z,19.58
2022-12-13T12:44:30.811Z,19.59
2022-12-13T12:47:31.925Z,19.58
2022-12-13T12:50:23.463Z,19.58
2022-12-13T12:53:03.217Z,19.57
2022-12-13T12:55:42.482Z,19.57
2022-12-13T12:58:20.307Z,19.56
2022-12-13T13:00:58.140Z,19.53
2022-12-13T13:03:29.750Z,19.55
2022-12-13T13:06:03.121Z,19.56
2022-12-13T13:08:40.668Z,19.57
2022-12-13T13:11:23.757Z,19.57
2022-12-13T13:14:03.391Z,19.58
2022-12-13T13:16:35.106Z,19.58
2022-12-13T13:19:03.970Z,19.58
2022-12-13T13:21:47.359Z,19.58
2022-12-13T13:24:27.838Z,19.55
2022-12-13T13:26:57.563Z,19.56
2022-12-13T13:29:34.483Z,19.51
2022-12-13T13:32:05.181Z,19.48
2022-12-13T13:34:35.055Z,19.55
2022-12-13T13:37:04.036Z,19.35
2022-12-13T13:39:56.267Z,19.55
2022-12-13T13:42:25.205Z,19.56
2022-12-13T13:45:03.290Z,19.57
2022-12-13T13:47:40.004Z,19.57
2022-12-13T13:50:26.290Z,19.57
2022-12-13T13:53:04.625Z,19.58
2022-12-13T13:55:48.818Z,19.52
2022-12-13T13:58:50.649Z,19.58
2022-12-13T14:01:37.303Z,19.56
2022-12-13T14:04:37.925Z,19.48
2022-12-13T14:07:44.954Z,19.56
2022-12-13T14:10:36.023Z,19.56
2022-12-13T14:13:49.340Z,19.54
2022-12-13T14:16:46.247Z,19.54
2022-12-13T14:19:45.956Z,19.54
2022-12-13T14:22:26.014Z,19.54
2022-12-13T14:25:05.280Z,19.54
2022-12-13T14:27:42.459Z,19.55
2022-12-13T14:30:26.997Z,19.56
2022-12-13T14:32:57.711Z,19.56
2022-12-13T14:35:28.877Z,19.55
2022-12-13T14:37:59.130Z,19.54
2022-12-13T14:40:31.318Z,19.54
2022-12-13T14:42:59.756Z,19.54
2022-12-13T14:45:31.235Z,19.53
2022-12-13T14:48:01.933Z,19.53
2022-12-13T14:50:33.378Z,19.55
2022-12-13T14:53:04.167Z,19.56
2022-12-13T14:55:36.494Z,19.55
2022-12-13T14:58:16.955Z,19.54
2022-12-13T15:00:46.927Z,19.56
2022-12-13T15:03:23.481Z,19.57
2022-12-13T15:05:55.772Z,19.61
2022-12-13T15:08:24.227Z,19.61
2022-12-13T15:10:54.914Z,19.60
2022-12-13T15:13:29.597Z,19.59
2022-12-13T15:16:10.382Z,19.59
2022-12-13T15:18:39.340Z,19.58
2022-12-13T15:21:21.646Z,19.49
2022-12-13T15:23:50.436Z,19.49
2022-12-13T15:26:28.576Z,19.55
2022-12-13T15:28:59.924Z,19.60
2022-12-13T15:31:32.963Z,19.62
2022-12-13T15:34:29.525Z,19.64
2022-12-13T15:37:00.992Z,19.67
2022-12-13T15:39:31.130Z,19.46
2022-12-13T15:42:00.883Z,19.70
2022-12-13T15:44:32.826Z,19.72
2022-12-13T15:47:05.328Z,19.75
2022-12-13T15:49:36.540Z,19.75
2022-12-13T15:52:06.493Z,19.77
2022-12-13T15:54:34.962Z,19.77
2022-12-13T15:57:13.743Z,19.78
2022-12-13T15:59:43.013Z,19.79
2022-12-13T16:02:18.372Z,19.80
2022-12-13T16:04:46.417Z,19.80
2022-12-13T16:07:24.402Z,19.81
2022-12-13T16:09:55.270Z,19.82
2022-12-13T16:12:27.157Z,19.73
2022-12-13T16:15:28.528Z,19.81
2022-12-13T16:18:08.274Z,19.82
2022-12-13T16:20:36.664Z,19.80
2022-12-13T16:23:09.166Z,19.81
2022-12-13T16:25:37.407Z,19.81
2022-12-13T16:28:05.793Z,19.82
2022-12-13T16:30:59.789Z,19.82
2022-12-13T16:33:29.286Z,19.28
2022-12-13T16:35:57.676Z,19.83
2022-12-13T16:38:28.164Z,19.83
2022-12-13T16:41:09.265Z,19.83
2022-12-13T16:43:41.229Z,19.83
2022-12-13T16:47:13.812Z,19.83
2022-12-13T16:49:08.051Z,19.83
2022-12-13T16:51:35.988Z,19.81
2022-12-13T16:54:04.310Z,19.84
2022-12-13T16:56:32.271Z,19.83
2022-12-13T16:59:00.204Z,19.83
2022-12-13T17:01:29.555Z,19.84
2022-12-13T17:03:57.564Z,19.84
2022-12-13T17:06:27.116Z,19.82
2022-12-13T17:08:55.153Z,19.82
2022-12-13T17:11:23.178Z,19.80
2022-12-13T17:13:51.648Z,19.78
2022-12-13T17:16:19.854Z,19.77
2022-12-13T17:18:49.800Z,19.76
2022-12-13T17:21:18.176Z,19.75
2022-12-13T17:23:47.508Z,19.74
2022-12-13T17:26:15.600Z,19.73
2022-12-13T17:28:43.749Z,19.73
2022-12-13T17:31:13.722Z,19.73
2022-12-13T17:33:42.410Z,19.72
2022-12-13T17:36:12.394Z,19.71
2022-12-13T17:38:43.851Z,19.71
2022-12-13T17:41:13.481Z,19.70
2022-12-13T17:43:42.514Z,19.70
2022-12-13T17:46:12.954Z,19.68
2022-12-13T17:48:41.687Z,19.67
2022-12-13T17:51:11.901Z,19.68
2022-12-13T17:53:41.089Z,19.69
2022-12-13T17:56:12.073Z,19.67
2022-12-13T17:58:41.521Z,19.67
2022-12-13T18:01:14.020Z,19.46
2022-12-13T18:03:42.430Z,19.66
2022-12-13T18:06:10.738Z,19.66
2022-12-13T18:08:40.561Z,19.66
2022-12-13T18:11:31.837Z,19.65
2022-12-13T18:13:58.833Z,19.59
2022-12-13T18:16:35.717Z,19.63
2022-12-13T18:19:06.432Z,19.39
2022-12-13T18:21:35.434Z,19.60
2022-12-13T18:24:03.749Z,19.61
2022-12-13T18:26:31.842Z,19.63
2022-12-13T18:29:02.682Z,19.60
2022-12-13T18:31:30.733Z,19.60
2022-12-13T18:33:58.807Z,19.60
2022-12-13T18:36:27.374Z,19.60
2022-12-13T18:38:55.674Z,19.60
2022-12-13T18:41:26.617Z,19.60
2022-12-13T18:43:59.306Z,19.60
2022-12-13T18:46:30.271Z,19.60
2022-12-13T18:48:59.243Z,19.60
2022-12-13T18:51:27.973Z,19.60
2022-12-13T18:53:56.610Z,19.60
2022-12-13T18:56:25.698Z,19.60
2022-12-13T18:58:54.421Z,19.61
2022-12-13T19:01:23.019Z,19.61
2022-12-13T19:03:52.678Z,19.61
2022-12-13T19:06:22.523Z,19.61
2022-12-13T19:08:51.567Z,19.61
2022-12-13T19:11:20.382Z,19.61
2022-12-13T19:13:48.740Z,19.56
2022-12-13T19:16:19.301Z,19.60
2022-12-13T19:18:47.458Z,19.58
2022-12-13T19:21:19.308Z,19.56
2022-12-13T19:23:55.106Z,19.58
2022-12-13T19:26:27.415Z,19.58
2022-12-13T19:28:57.461Z,19.58
2022-12-13T19:31:30.866Z,19.59
2022-12-13T19:34:00.603Z,19.59
2022-12-13T19:36:30.645Z,19.58
2022-12-13T19:38:59.057Z,19.59
2022-12-13T19:41:27.608Z,19.59
2022-12-13T19:43:55.826Z,19.58
2022-12-13T19:46:23.993Z,19.60
2022-12-13T19:48:52.138Z,19.59
2022-12-13T19:51:21.591Z,19.58
2022-12-13T19:53:51.080Z,19.59
2022-12-13T19:56:21.318Z,19.59
2022-12-13T19:58:54.441Z,19.52
2022-12-13T20:01:22.708Z,19.59
2022-12-13T20:03:51.453Z,19.56
2022-12-13T20:06:22.162Z,19.58
2022-12-13T20:08:53.523Z,19.58
2022-12-13T20:11:24.246Z,19.59
2022-12-13T20:13:55.874Z,19.58
2022-12-13T20:16:26.522Z,19.58
2022-12-13T20:18:56.235Z,19.58
2022-12-13T20:21:24.350Z,19.58
2022-12-13T20:23:53.939Z,19.51
2022-12-13T20:26:26.608Z,19.58
2022-12-13T20:28:55.173Z,19.58
2022-12-13T20:31:25.245Z,19.57
2022-12-13T20:33:56.092Z,19.56
2022-12-13T20:36:26.390Z,19.57
2022-12-13T20:38:59.626Z,19.57
2022-12-13T20:41:30.380Z,19.56
2022-12-13T20:44:00.047Z,19.57
2022-12-13T20:46:29.604Z,19.57
2022-12-13T20:48:59.575Z,19.38
2022-12-13T20:51:30.311Z,19.57
2022-12-13T20:54:00.509Z,19.59
2022-12-13T20:56:31.846Z,19.56
2022-12-13T20:58:59.874Z,19.57
2022-12-13T21:01:30.645Z,19.58
2022-12-13T21:04:01.232Z,19.57
2022-12-13T21:06:30.168Z,19.58
2022-12-13T21:09:02.919Z,19.57
2022-12-13T21:11:33.330Z,19.57
2022-12-13T21:14:08.185Z,19.57
2022-12-13T21:16:40.749Z,19.54
2022-12-13T21:19:10.410Z,19.55
2022-12-13T21:21:39.077Z,19.56
2022-12-13T21:24:09.449Z,19.53
2022-12-13T21:26:37.482Z,19.57
2022-12-13T21:29:07.681Z,19.55
2022-12-13T21:31:36.777Z,19.55
2022-12-13T21:34:06.573Z,19.54
2022-12-13T21:36:36.356Z,19.58
2022-12-13T21:39:09.650Z,19.57
2022-12-13T21:41:37.615Z,19.56
2022-12-13T21:44:06.199Z,19.57
2022-12-13T21:47:10.725Z,19.58
2022-12-13T21:49:22.635Z,19.53
2022-12-13T21:51:50.573Z,19.53
2022-12-13T21:54:20.361Z,19.56
2022-12-13T21:57:05.535Z,19.57
2022-12-13T21:59:33.711Z,19.57
2022-12-13T22:02:16.398Z,19.57
2022-12-13T22:04:46.172Z,19.56
2022-12-13T22:07:15.951Z,19.57
2022-12-13T22:09:46.369Z,19.57
2022-12-13T22:12:20.860Z,19.57
2022-12-13T22:14:49.189Z,19.58
2022-12-13T22:17:17.679Z,19.55
2022-12-13T22:19:48.534Z,19.56
2022-12-13T22:22:17.565Z,19.57
2022-12-13T22:24:52.950Z,19.58
2022-12-13T22:27:24.074Z,19.58
2022-12-13T22:29:53.258Z,19.59
2022-12-13T22:32:21.547Z,19.59
2022-12-13T22:34:49.531Z,19.58
2022-12-13T22:37:17.714Z,19.59
2022-12-13T22:39:47.090Z,19.58
2022-12-13T22:42:15.549Z,19.60
2022-12-13T22:44:43.593Z,19.61
2022-12-13T22:47:11.546Z,19.61
2022-12-13T22:49:40.082Z,19.61
2022-12-13T22:52:08.374Z,19.52
2022-12-13T22:54:36.317Z,19.59
2022-12-13T22:57:05.696Z,19.60
2022-12-13T22:59:33.984Z,19.60
2022-12-13T23:02:03.306Z,19.61
2022-12-13T23:04:31.899Z,19.61
2022-12-13T23:07:00.112Z,19.61
2022-12-13T23:09:28.056Z,19.52
2022-12-13T23:12:12.741Z,19.61
2022-12-13T23:14:42.171Z,19.61
2022-12-13T23:17:10.046Z,19.63
2022-12-13T23:19:50.010Z,19.62
2022-12-13T23:22:19.651Z,19.63
2022-12-13T23:24:47.555Z,19.64
2022-12-13T23:27:15.493Z,19.63
2022-12-13T23:29:44.892Z,19.63
2022-12-13T23:32:13.029Z,19.64
2022-12-13T23:34:40.984Z,19.64
2022-12-13T23:37:08.933Z,19.64
2022-12-13T23:39:36.811Z,19.65
2022-12-13T23:42:05.053Z,19.65
2022-12-13T23:44:33.198Z,19.64
2022-12-13T23:47:02.472Z,19.65
2022-12-13T23:49:30.348Z,19.65
2022-12-13T23:51:58.218Z,19.65
2022-12-13T23:54:26.134Z,19.63
2022-12-13T23:56:54.050Z,19.65
2022-12-13T23:59:22.139Z,19.65
